Time;durP1;ratioP1;P1;durP2;ratioP2;P2;SDS_P1;SDS_P2;PMS_P1;PMS_P2;Temp;Humidity;BMP_temperature;BMP_pressure;BME280_temperature;BME280_humidity;BME280_pressure;Samples;Min_cycle;Max_cycle;Signal;HPM_P1;HPM_P2
2022/01/22 00:01:02;;;;;;;14.43;4.73;;;;;;;-1.36;45.13;100294.09;126366;1099;104211;-79
2022/01/22 00:03:36;;;;;;;14.07;4.40;;;;;;;-1.37;45.45;100293.97;126352;1099;104184;-79
2022/01/22 00:06:08;;;;;;;12.55;4.90;;;;;;;-1.39;45.19;100296.41;126270;1099;104188;-80
2022/01/22 00:08:39;;;;;;;12.33;4.63;;;;;;;-1.39;45.74;100300.67;126241;1099;104824;-80
2022/01/22 00:11:13;;;;;;;11.53;4.60;;;;;;;-1.39;45.42;100306.71;126314;1099;104219;-79
2022/01/22 00:16:32;;;;;;;12.67;4.30;;;;;;;-1.35;45.69;100307.87;126303;1099;104177;-79
2022/01/22 00:19:08;;;;;;;14.63;4.43;;;;;;;-1.34;45.78;100297.70;126213;1099;104182;-80
2022/01/22 00:21:39;;;;;;;13.47;4.73;;;;;;;-1.32;45.22;100288.42;126339;1099;104130;-79
2022/01/22 00:24:14;;;;;;;12.70;4.07;;;;;;;-1.29;45.77;100292.92;126360;1099;104276;-80
2022/01/22 00:26:44;;;;;;;;;;;;;;;-1.27;45.65;100291.36;126333;1098;104162;-80
2022/01/22 00:29:17;;;;;;;10.57;4.30;;;;;;;-1.24;45.08;100280.41;126324;1099;104153;-80
2022/01/22 00:31:48;;;;;;;11.47;5.00;;;;;;;-1.22;45.87;100278.84;126211;1099;104242;-79
2022/01/22 00:34:20;;;;;;;10.33;4.30;;;;;;;-1.22;45.25;100287.45;126298;1099;104150;-79
2022/01/22 00:36:52;;;;;;;14.23;5.03;;;;;;;-1.19;45.13;100284.23;126331;1099;104179;-79
2022/01/22 00:39:29;;;;;;;15.13;5.43;;;;;;;-1.18;45.77;100286.94;126232;1099;104141;-79
2022/01/22 00:42:01;;;;;;;13.57;4.80;;;;;;;-1.14;45.06;100288.06;126306;1099;104283;-79
2022/01/22 00:44:32;;;;;;;13.23;4.53;;;;;;;-1.13;45.64;100285.61;126310;1099;104195;-80
2022/01/22 00:47:04;;;;;;;17.03;5.60;;;;;;;-1.11;45.30;100286.65;126295;1098;104147;-80
2022/01/22 00:49:38;;;;;;;13.90;5.40;;;;;;;-1.09;45.50;100279.05;126233;1099;104296;-80
2022/01/22 00:52:09;;;;;;;13.30;5.37;;;;;;;-1.07;45.76;100281.73;126392;1099;104207;-80
2022/01/22 00:54:41;;;;;;;14.27;5.30;;;;;;;-1.07;45.76;100274.91;126312;1099;104268;-80
2022/01/22 00:57:12;;;;;;;11.67;4.73;;;;;;;-1.06;45.95;100265.48;126240;1099;104268;-80
2022/01/22 00:59:46;;;;;;;12.47;4.47;;;;;;;-1.06;45.41;100273.22;126214;1099;104205;-81
2022/01/22 01:02:18;;;;;;;12.63;5.10;;;;;;;-1.05;46.09;100268.19;126352;1099;104163;-81
2022/01/22 01:04:50;;;;;;;10.60;4.77;;;;;;;-1.05;45.78;100267.30;126410;1099;104153;-81
2022/01/22 01:07:21;;;;;;;12.93;4.77;;;;;;;-1.04;45.42;100263.92;126355;1099;103445;-80
2022/01/22 01:09:53;;;;;;;11.60;4.33;;;;;;;-1.03;45.88;100261.46;126295;1098;104184;-79
2022/01/22 01:12:25;;;;;;;12.30;4.60;;;;;;;-1.02;45.56;100264.96;126330;1099;104139;-80
2022/01/22 01:15:11;;;;;;;11.33;4.70;;;;;;;-0.99;45.70;100265.20;126305;1099;104328;-80
2022/01/22 01:32:18;;;;;;;8.97;4.03;;;;;;;-0.94;45.60;100245.84;126469;1099;103051;-80
2022/01/22 01:34:53;;;;;;;11.93;4.57;;;;;;;-0.93;45.38;100245.95;126422;1099;104152;-80
2022/01/22 01:37:28;;;;;;;8.87;3.87;;;;;;;-0.91;45.71;100248.65;126319;1099;104153;-80
2022/01/22 01:40:03;;;;;;;13.43;4.40;;;;;;;-0.89;45.60;100241.04;126307;1099;105675;-80
2022/01/22 01:42:46;;;;;;;12.33;4.23;;;;;;;-0.90;45.33;100240.16;126359;1099;104202;-80
2022/01/22 01:45:18;;;;;;;11.43;4.23;;;;;;;-0.91;45.94;100238.34;126344;1099;104175;-80
2022/01/22 01:47:56;;;;;;;;;;;;;;;-0.93;45.91;100229.61;126401;1099;104153;-80
2022/01/22 01:50:26;;;;;;;;;;;;;;;-0.95;45.27;100228.58;126382;1099;104150;-80
2022/01/22 01:53:09;;;;;;;7.23;3.73;;;;;;;-0.98;45.94;100228.34;126308;1099;104245;-80
2022/01/22 01:56:01;;;;;;;11.13;3.83;;;;;;;-0.99;46.23;100226.56;126321;1099;104152;-80
2022/01/22 01:58:36;;;;;;;11.70;4.10;;;;;;;-1.02;45.21;100226.33;126332;1099;104156;-80
2022/01/22 02:01:08;;;;;;;9.47;3.73;;;;;;;-1.03;45.89;100225.41;126301;1099;104140;-80
2022/01/22 02:03:42;;;;;;;9.57;4.03;;;;;;;-1.03;45.94;100220.25;126307;1099;104150;-80
2022/01/22 02:06:21;;;;;;;8.93;4.20;;;;;;;-1.05;45.22;100221.83;126355;1099;104225;-80
2022/01/22 02:08:55;;;;;;;11.33;4.87;;;;;;;-1.07;46.04;100218.24;126340;1099;104792;-80
2022/01/22 02:11:31;;;;;;;13.13;4.20;;;;;;;-1.09;45.46;100231.00;126372;1099;104179;-80
2022/01/22 02:25:59;;;;;;;9.60;4.17;;;;;;;-1.15;46.45;100234.79;126203;1099;104195;-78
2022/01/22 02:28:32;;;;;;;10.77;3.90;;;;;;;-1.18;45.68;100240.59;126274;1099;104147;-79
2022/01/22 02:31:11;;;;;;;11.73;3.90;;;;;;;-1.20;45.55;100238.66;126215;1099;104155;-79
2022/01/22 02:34:06;;;;;;;10.87;4.00;;;;;;;-1.22;45.97;100243.69;126312;1099;104275;-79
2022/01/22 02:36:43;;;;;;;10.57;4.17;;;;;;;-1.22;45.95;100237.66;126268;1099;104172;-78
2022/01/22 02:39:19;;;;;;;11.53;4.20;;;;;;;-1.22;45.97;100237.66;126331;1099;104628;-79
2022/01/22 02:41:52;;;;;;;13.20;4.40;;;;;;;-1.24;45.76;100234.07;126280;1099;104339;-79
2022/01/22 02:44:33;;;;;;;11.50;3.95;;;;;;;-1.25;46.46;100227.11;126216;1099;104956;-79
2022/01/22 02:47:07;;;;;;;12.63;3.90;;;;;;;-1.26;45.79;100223.66;126281;1099;104252;-79
2022/01/22 02:49:45;;;;;;;10.47;3.90;;;;;;;-1.27;45.86;100224.42;126286;1099;104156;-79
2022/01/22 02:52:18;;;;;;;11.17;4.17;;;;;;;-1.28;46.21;100223.53;126292;1099;104137;-79
2022/01/22 02:54:51;;;;;;;11.33;4.30;;;;;;;-1.29;46.70;100226.87;126353;1099;104143;-79
2022/01/22 02:57:25;;;;;;;9.67;3.77;;;;;;;-1.29;46.29;100233.70;126207;1099;104139;-79
2022/01/22 03:00:00;;;;;;;8.17;3.77;;;;;;;-1.28;45.60;100230.33;126303;1099;104214;-79
2022/01/22 03:02:34;;;;;;;10.00;3.87;;;;;;;-1.28;46.81;100233.83;126317;1099;104204;-79
2022/01/22 03:05:07;;;;;;;13.53;4.50;;;;;;;-1.28;46.15;100227.76;126241;1099;104175;-79
2022/01/22 03:07:41;;;;;;;10.50;3.90;;;;;;;-1.28;45.87;100220.95;126201;1099;104198;-79
2022/01/22 03:10:14;;;;;;;18.98;5.40;;;;;;;-1.30;46.40;100222.49;126172;1098;104208;-79
2022/01/22 03:13:03;;;;;;;14.10;4.90;;;;;;;-1.29;45.72;100219.15;126193;1099;104213;-79
2022/01/22 03:15:59;;;;;;;12.47;4.83;;;;;;;-1.28;45.50;100225.19;126272;1099;104146;-79
2022/01/22 03:18:41;;;;;;;17.43;5.43;;;;;;;-1.31;46.79;100220.72;126313;1097;104184;-79
2022/01/22 03:21:39;;;;;;;17.23;5.40;;;;;;;-1.31;46.88;100219.80;126225;1099;104223;-80
2022/01/22 03:30:05;;;;;;;14.67;5.03;;;;;;;-1.41;46.81;100219.87;126000;1099;104207;-79
2022/01/22 03:32:43;;;;;;;13.40;5.10;;;;;;;-1.45;46.08;100216.14;126241;1099;104306;-79
2022/01/22 03:35:26;;;;;;;13.27;4.63;;;;;;;-1.48;46.71;100216.81;126343;1099;104158;-79
2022/01/22 03:38:04;;;;;;;13.93;4.40;;;;;;;-1.54;46.40;100218.91;126224;1099;104175;-79
2022/01/22 03:40:37;;;;;;;9.43;4.23;;;;;;;-1.57;46.16;100216.09;126324;1099;104153;-79
2022/01/22 03:43:14;;;;;;;12.80;4.40;;;;;;;-1.62;46.55;100225.12;126284;1099;104150;-79
2022/01/22 03:45:49;;;;;;;11.37;4.77;;;;;;;-1.65;46.38;100230.92;126267;1099;104152;-81
2022/01/22 03:48:23;;;;;;;10.98;4.10;;;;;;;-1.68;46.18;100222.06;126325;1099;104278;-80
2022/01/22 03:50:57;;;;;;;12.20;4.50;;;;;;;-1.70;46.55;100228.74;126235;1098;104136;-80
2022/01/22 03:53:34;;;;;;;9.70;3.77;;;;;;;-1.74;45.83;100235.33;126224;1099;104149;-80
2022/01/22 03:56:09;;;;;;;11.00;4.50;;;;;;;-1.78;45.95;100230.70;126268;1099;104694;-80
2022/01/22 03:59:02;;;;;;;11.23;4.30;;;;;;;-1.85;46.77;100233.58;126275;1099;104210;-80
2022/01/22 04:04:57;;;;;;;12.10;4.07;;;;;;;-1.95;46.43;100223.31;126301;1099;104190;-80
2022/01/22 04:08:07;;;;;;;12.40;4.63;;;;;;;-1.98;46.83;100236.80;126341;1099;104194;-81
2022/01/22 04:10:40;;;;;;;11.93;4.30;;;;;;;-2.01;46.79;100231.41;126427;1099;104304;-80
2022/01/22 04:13:14;;;;;;;14.30;4.87;;;;;;;-2.01;47.50;100228.84;126417;1099;104150;-80
2022/01/22 04:15:53;;;;;;;10.85;4.00;;;;;;;-2.01;47.55;100240.05;126434;1099;104245;-80
2022/01/22 04:26:57;;;;;;;12.50;4.17;;;;;;;-2.00;47.30;100231.53;125453;1099;104213;-80
2022/01/22 04:29:30;;;;;;;11.63;4.07;;;;;;;-2.00;47.81;100230.65;125446;1099;104198;-80
2022/01/22 04:32:04;;;;;;;10.57;4.40;;;;;;;-2.00;48.34;100231.53;125460;1099;104175;-80
2022/01/22 04:34:34;;;;;;;;;;;;;;;-2.01;48.39;100232.33;125376;1099;104194;-80
2022/01/22 04:37:06;;;;;;;9.30;4.10;;;;;;;-2.00;48.29;100244.39;125434;1099;104223;-81
2022/01/22 04:39:37;;;;;;;12.10;4.30;;;;;;;-1.98;47.71;100239.38;125360;1100;104161;-80
2022/01/22 04:42:14;;;;;;;16.23;4.97;;;;;;;-1.97;47.67;100232.58;125317;1099;104383;-80
2022/01/22 04:44:54;;;;;;;11.23;4.37;;;;;;;-1.96;48.50;100235.28;125372;1099;108143;-81
2022/01/22 04:47:34;;;;;;;12.90;4.80;;;;;;;-1.96;48.63;100240.42;125430;1102;104201;-81
2022/01/22 04:55:46;;;;;;;11.20;4.40;;;;;;;-1.99;48.89;100243.63;125377;1098;104392;-81
2022/01/22 04:58:19;;;;;;;10.07;4.23;;;;;;;-2.00;48.76;100246.97;125608;1099;104312;-81
2022/01/22 05:00:53;;;;;;;12.33;4.27;;;;;;;-2.00;48.72;100248.65;126309;1099;104173;-80
2022/01/22 05:03:44;;;;;;;13.55;4.28;;;;;;;-2.01;50.13;100254.55;126339;1099;104159;-80
2022/01/22 05:06:39;;;;;;;11.57;4.30;;;;;;;-2.00;49.80;100258.94;126363;1099;104146;-80
2022/01/22 05:09:26;;;;;;;12.60;4.70;;;;;;;-1.96;49.21;100267.78;126407;1099;104326;-80
2022/01/22 05:12:04;;;;;;;12.77;4.70;;;;;;;-1.91;48.79;100266.52;126241;1099;104284;-81
2022/01/22 05:14:39;;;;;;;13.87;5.00;;;;;;;-1.87;49.58;100266.89;126346;1099;104146;-81
2022/01/22 05:17:12;;;;;;;9.08;4.65;;;;;;;-1.83;49.90;100275.74;126318;1099;104166;-80
2022/01/22 05:19:53;;;;;;;11.13;4.60;;;;;;;-1.81;49.91;100271.61;126397;1099;104134;-81
2022/01/22 05:22:44;;;;;;;11.67;4.87;;;;;;;-1.75;49.51;100273.79;126302;1099;104660;-80
2022/01/22 05:25:20;;;;;;;13.60;4.73;;;;;;;-1.74;49.05;100276.48;126154;1099;104213;-81
2022/01/22 05:28:06;;;;;;;12.03;4.47;;;;;;;-1.71;49.37;100278.42;126257;1099;104249;-81
2022/01/22 05:30:57;;;;;;;13.37;4.40;;;;;;;-1.70;49.13;100275.97;126037;1099;104278;-81
2022/01/22 05:36:59;;;;;;;12.03;4.53;;;;;;;-1.63;49.33;100269.63;125874;1099;104210;-78
2022/01/22 05:39:34;;;;;;;12.67;4.70;;;;;;;-1.60;49.58;100269.88;125897;1099;104172;-78
2022/01/22 05:42:09;;;;;;;12.37;4.60;;;;;;;-1.56;49.96;100271.02;125885;1099;104224;-78
2022/01/22 05:44:41;;;;;;;10.30;4.40;;;;;;;-1.53;49.37;100271.26;125984;1099;104194;-78
2022/01/22 05:47:19;;;;;;;9.70;4.10;;;;;;;-1.52;50.13;100268.81;126050;1099;104216;-81
2022/01/22 05:49:51;;;;;;;11.80;4.43;;;;;;;-1.49;50.45;100271.63;126061;1099;104207;-78
2022/01/22 05:52:30;;;;;;;11.23;4.27;;;;;;;-1.47;49.32;100267.48;126097;1099;104261;-79
2022/01/22 05:55:26;;;;;;;14.50;5.00;;;;;;;-1.45;50.00;100271.11;126032;1099;104143;-79
2022/01/22 06:00:52;;;;;;;13.35;4.92;;;;;;;-1.43;49.61;100265.16;126248;1099;104195;-80
2022/01/22 06:03:30;;;;;;;19.90;5.70;;;;;;;-1.44;50.36;100269.42;126236;1099;104286;-79
2022/01/22 06:06:06;;;;;;;13.83;5.53;;;;;;;-1.44;49.52;100269.42;125198;1099;104150;-79
2022/01/22 06:08:44;;;;;;;16.13;5.77;;;;;;;-1.44;49.49;100272.00;125244;1102;104297;-79
2022/01/22 06:11:22;;;;;;;18.90;6.40;;;;;;;-1.42;49.61;100283.30;125254;1102;104189;-81
2022/01/22 06:13:54;;;;;;;17.00;5.83;;;;;;;-1.41;49.66;100271.35;125276;1100;104176;-79
2022/01/22 06:16:38;;;;;;;14.70;6.00;;;;;;;-1.39;49.52;100282.66;125199;1099;104265;-78
2022/01/22 06:19:27;;;;;;;;;;;;;;;-1.37;51.83;100279.44;125306;1099;104206;-79
2022/01/22 06:21:58;;;;;;;13.50;5.37;;;;;;;-1.34;49.94;100286.48;125291;1102;104185;-80
2022/01/22 06:24:31;;;;;;;19.57;5.90;;;;;;;-1.30;50.49;100278.24;125265;1099;104395;-79
2022/01/22 06:27:03;;;;;;;17.57;6.03;;;;;;;-1.26;50.16;100290.59;125440;1099;104335;-80
2022/01/22 06:29:34;;;;;;;17.00;6.03;;;;;;;-1.22;50.79;100278.84;125494;1099;104364;-79
2022/01/22 06:32:07;;;;;;;17.50;5.97;;;;;;;-1.18;50.58;100281.78;126164;1099;104386;-79
2022/01/22 06:34:40;;;;;;;19.37;5.87;;;;;;;-1.16;50.58;100277.64;126111;1099;104406;-80
2022/01/22 06:37:12;;;;;;;13.10;5.07;;;;;;;-1.14;50.99;100278.69;125259;1099;104281;-79
2022/01/22 06:42:57;;;;;;;17.77;6.30;;;;;;;-1.09;51.35;100286.77;125383;1099;104179;-80
2022/01/22 06:45:44;;;;;;;13.20;5.10;;;;;;;-1.05;50.91;100287.90;126203;1099;104226;-80
2022/01/22 06:48:16;;;;;;;14.87;5.70;;;;;;;-1.05;51.42;100283.63;126340;1098;104143;-80
2022/01/22 06:51:05;;;;;;;36.07;7.77;;;;;;;-1.02;50.95;100294.17;126406;1099;104245;-80
2022/01/22 06:53:40;;;;;;;21.57;6.63;;;;;;;-1.00;51.38;100292.61;126304;1099;104215;-79
2022/01/22 06:56:18;;;;;;;21.67;7.00;;;;;;;-0.96;51.46;100293.77;126056;1099;104262;-80
2022/01/22 06:59:06;;;;;;;18.27;6.07;;;;;;;-0.92;51.49;100296.70;126153;1099;104308;-80
2022/01/22 07:01:39;;;;;;;15.90;5.70;;;;;;;-0.88;51.30;100291.80;126257;1099;104153;-80
2022/01/22 07:04:18;;;;;;;14.23;5.80;;;;;;;-0.85;51.53;100290.34;126212;1099;104729;-80
2022/01/22 07:07:16;;;;;;;16.33;6.40;;;;;;;-0.81;51.37;100291.47;126258;1099;104172;-80
2022/01/22 07:09:50;;;;;;;22.23;6.77;;;;;;;-0.76;51.40;100297.90;126278;1099;104143;-80
2022/01/22 07:12:22;;;;;;;13.43;5.40;;;;;;;-0.70;51.77;100285.48;126251;1099;104176;-79
2022/01/22 07:14:54;;;;;;;15.50;5.73;;;;;;;-0.61;51.25;100291.35;126333;1099;104172;-80
2022/01/22 07:17:29;;;;;;;15.13;5.70;;;;;;;-0.57;51.53;100283.05;126289;1099;104245;-79
2022/01/22 07:20:15;;;;;;;16.03;5.97;;;;;;;-0.50;51.06;100291.25;126261;1099;104188;-80
2022/01/22 07:22:59;;;;;;;16.53;6.77;;;;;;;-0.42;51.11;100293.64;126219;1098;105185;-80
2022/01/22 07:25:49;;;;;;;17.57;6.27;;;;;;;-0.41;51.92;100286.80;126150;1099;104149;-79
2022/01/22 07:28:41;;;;;;;20.93;6.23;;;;;;;-0.43;50.88;100288.37;125756;1099;104171;-80
2022/01/22 07:31:13;;;;;;;14.87;5.70;;;;;;;-0.42;51.14;100295.30;126220;1099;104152;-80
2022/01/22 07:33:46;;;;;;;16.60;6.03;;;;;;;-0.44;51.33;100295.19;126251;1099;104332;-79
2022/01/22 07:36:18;;;;;;;16.27;6.27;;;;;;;-0.47;51.86;100289.80;126212;1099;104383;-80
2022/01/22 07:38:50;;;;;;;20.37;6.50;;;;;;;-0.47;51.66;100294.95;126107;1099;104146;-79
2022/01/22 07:41:21;;;;;;;21.57;6.27;;;;;;;-0.43;51.64;100293.53;126160;1099;104156;-80
2022/01/22 07:44:29;;;;;;;17.80;6.20;;;;;;;-0.38;51.69;100298.23;125330;1103;104328;-80
2022/01/22 07:47:01;;;;;;;16.53;5.43;;;;;;;-0.29;52.36;100299.73;125509;1099;104172;-80
2022/01/22 07:49:33;;;;;;;15.20;5.70;;;;;;;-0.26;51.77;100289.65;126199;1099;104274;-79
2022/01/22 07:52:08;;;;;;;15.53;6.03;;;;;;;-0.16;52.08;100296.39;126276;1099;104206;-79
2022/01/22 07:54:39;;;;;;;25.40;6.33;;;;;;;-0.03;51.47;100292.26;126380;1099;104139;-80
2022/01/22 07:57:11;;;;;;;18.83;6.87;;;;;;;0.07;51.39;100287.78;126264;1099;104685;-80
2022/01/22 07:59:43;;;;;;;18.10;6.37;;;;;;;0.17;51.57;100288.58;126396;1099;104220;-80
2022/01/22 08:02:17;;;;;;;17.50;6.37;;;;;;;0.30;51.96;100292.95;126231;1099;104332;-79
2022/01/22 08:05:18;;;;;;;15.73;5.80;;;;;;;0.44;52.15;100288.78;125331;1102;104357;-79
2022/01/22 08:08:14;;;;;;;16.87;6.00;;;;;;;0.50;52.05;100291.81;125781;1099;104277;-79
2022/01/22 08:11:05;;;;;;;17.77;5.80;;;;;;;0.60;51.79;100303.70;126290;1099;104208;-80
2022/01/22 08:13:40;;;;;;;14.10;5.50;;;;;;;0.61;52.73;100307.16;126272;1098;104718;-80
2022/01/22 08:16:12;;;;;;;13.57;5.53;;;;;;;0.60;52.35;100308.86;126337;1099;104153;-80
2022/01/22 08:18:44;;;;;;;15.97;5.50;;;;;;;0.56;52.65;100306.83;126227;1099;104284;-79
2022/01/22 08:21:20;;;;;;;11.65;4.70;;;;;;;0.49;52.85;100302.03;126258;1099;104149;-80
2022/01/22 08:24:12;;;;;;;15.67;5.77;;;;;;;0.44;52.41;100305.97;126366;1099;104149;-79
2022/01/22 08:27:09;;;;;;;15.80;5.50;;;;;;;0.43;52.32;100310.22;126259;1099;104219;-80
2022/01/22 08:29:42;;;;;;;14.23;5.50;;;;;;;0.46;53.04;100315.60;126243;1099;104179;-80
2022/01/22 08:32:33;;;;;;;14.70;5.47;;;;;;;0.49;53.38;100325.27;126342;1099;104231;-79
2022/01/22 08:37:58;;;;;;;19.40;5.43;;;;;;;0.46;52.46;100315.60;126290;1099;104200;-79
2022/01/22 08:40:29;;;;;;;12.90;5.30;;;;;;;0.50;52.92;100321.91;126317;1099;104150;-79
2022/01/22 08:43:02;;;;;;;13.37;5.63;;;;;;;0.50;52.79;100320.22;126221;1099;104146;-80
2022/01/22 08:45:36;;;;;;;14.03;5.17;;;;;;;0.51;53.34;100323.69;126277;1099;104136;-79
2022/01/22 08:48:11;;;;;;;14.98;5.33;;;;;;;0.51;53.46;100324.60;126319;1099;104476;-80
2022/01/22 08:50:43;;;;;;;;;;;;;;;0.53;53.36;100324.69;126280;1099;104168;-79
2022/01/22 08:53:15;;;;;;;15.13;5.70;;;;;;;0.60;53.54;100328.63;126267;1099;104150;-79
2022/01/22 08:55:46;;;;;;;15.27;5.67;;;;;;;0.64;53.30;100333.21;126321;1099;104140;-80
2022/01/22 08:58:17;;;;;;;16.87;5.70;;;;;;;0.67;53.07;100325.69;126222;1099;104268;-79
2022/01/22 09:01:02;;;;;;;14.60;5.57;;;;;;;0.70;53.09;100333.66;126287;1099;104299;-79
2022/01/22 09:03:38;;;;;;;16.75;6.40;;;;;;;0.76;52.87;100322.88;126379;1098;104146;-80
2022/01/22 09:06:30;;;;;;;18.10;6.23;;;;;;;0.84;53.41;100326.90;125737;1099;104176;-79
2022/01/22 09:09:20;;;;;;;14.43;5.90;;;;;;;0.87;52.84;100325.45;126230;1099;105492;-80
2022/01/22 09:12:12;;;;;;;17.07;5.60;;;;;;;0.85;53.45;100316.67;126355;1099;104392;-80
2022/01/22 09:14:54;;;;;;;14.10;5.83;;;;;;;0.82;53.15;100316.45;126388;1099;104149;-80
2022/01/22 09:17:27;;;;;;;12.90;5.37;;;;;;;0.82;53.30;100323.32;126363;1098;104159;-79
2022/01/22 09:20:05;;;;;;;14.60;5.77;;;;;;;0.79;53.15;100310.19;126218;1099;105730;-80
2022/01/22 09:22:37;;;;;;;17.73;5.83;;;;;;;0.81;53.22;100316.34;126330;1099;104200;-79
2022/01/22 09:25:15;;;;;;;16.93;5.63;;;;;;;0.79;53.27;100305.02;126212;1099;104226;-79
2022/01/22 09:27:46;;;;;;;18.30;6.33;;;;;;;0.85;53.00;100297.70;126306;1099;104634;-80
2022/01/22 09:30:17;;;;;;;17.63;6.00;;;;;;;0.91;53.23;100292.09;126181;1099;104270;-80
2022/01/22 09:32:49;;;;;;;18.87;6.63;;;;;;;0.97;53.12;100295.11;126357;1099;104242;-80
2022/01/22 09:35:40;;;;;;;15.70;5.70;;;;;;;0.98;53.07;100296.88;126371;1099;104140;-80
2022/01/22 09:38:34;;;;;;;15.67;5.63;;;;;;;1.02;52.75;100298.91;126375;1099;104274;-80
2022/01/22 09:41:26;;;;;;;17.67;6.27;;;;;;;1.08;52.96;100307.97;126297;1099;104233;-80
2022/01/22 09:44:02;;;;;;;16.43;5.37;;;;;;;1.06;53.26;100301.81;126338;1099;104259;-80
2022/01/22 09:46:48;;;;;;;13.43;5.13;;;;;;;1.08;52.61;100307.09;126321;1099;104216;-80
2022/01/22 09:49:34;;;;;;;17.60;6.33;;;;;;;1.09;52.88;100298.52;126309;1098;104271;-80
2022/01/22 09:52:15;;;;;;;16.27;5.73;;;;;;;1.10;52.76;100302.91;126330;1099;104249;-80
2022/01/22 09:55:14;;;;;;;14.73;6.07;;;;;;;1.12;52.87;100298.73;126336;1099;104149;-80
2022/01/22 09:58:06;;;;;;;18.90;5.67;;;;;;;1.12;52.83;100290.98;126322;1099;104213;-80
2022/01/22 10:01:24;;;;;;;15.20;4.90;;;;;;;1.13;52.94;100302.24;125880;1099;104150;-80
2022/01/22 10:04:03;;;;;;;16.60;5.47;;;;;;;1.13;53.07;100297.07;126369;1099;102130;-80
2022/01/22 10:06:57;;;;;;;14.97;5.63;;;;;;;1.19;52.92;100289.75;126339;1099;104252;-80
2022/01/22 10:10:00;;;;;;;17.43;5.70;;;;;;;1.23;52.96;100284.90;126421;1099;104172;-80
2022/01/22 10:12:52;;;;;;;17.37;5.40;;;;;;;1.24;52.82;100278.03;126377;1099;111892;-80
2022/01/22 10:15:40;;;;;;;15.63;5.63;;;;;;;1.21;52.62;100270.06;126399;1099;104173;-81
2022/01/22 10:18:20;;;;;;;15.77;5.93;;;;;;;1.23;52.32;100274.56;126385;1099;104149;-80
2022/01/22 10:20:52;;;;;;;19.00;6.40;;;;;;;1.28;52.68;100274.87;126202;1099;104174;-80
2022/01/22 10:23:27;;;;;;;15.67;5.97;;;;;;;1.31;52.50;100275.09;126378;1099;105682;-80
2022/01/22 10:26:04;;;;;;;13.90;5.40;;;;;;;1.38;51.89;100273.81;126364;1099;104185;-79
2022/01/22 10:28:46;;;;;;;13.87;5.40;;;;;;;1.33;52.24;100252.81;126257;1099;104153;-79
2022/01/22 10:31:22;;;;;;;13.23;5.23;;;;;;;1.32;51.39;100253.59;126357;1099;104162;-79
2022/01/22 10:34:14;;;;;;;14.83;5.37;;;;;;;1.37;52.03;100248.73;126243;1099;104241;-80
2022/01/22 10:37:04;;;;;;;13.07;5.27;;;;;;;1.43;51.51;100250.08;126393;1098;104134;-79
2022/01/22 10:39:52;;;;;;;15.67;5.60;;;;;;;1.48;51.52;100244.30;126622;1099;102865;-80
2022/01/22 10:42:27;;;;;;;11.87;5.07;;;;;;;1.56;50.92;100250.91;126495;1099;102189;-79
2022/01/22 10:45:06;;;;;;;12.83;5.20;;;;;;;1.56;51.38;100249.21;126679;1098;102097;-80
2022/01/22 10:47:41;;;;;;;16.60;5.90;;;;;;;1.51;50.23;100244.50;126460;1099;104143;-79
2022/01/22 10:50:27;;;;;;;13.53;5.70;;;;;;;1.49;50.72;100252.16;126512;1099;104326;-79
2022/01/22 10:52:59;;;;;;;19.10;5.70;;;;;;;1.50;50.41;100240.16;126371;1099;104242;-80
2022/01/22 10:55:31;;;;;;;19.70;5.50;;;;;;;1.46;50.32;100245.89;126367;1099;104153;-80
2022/01/22 10:58:09;;;;;;;15.00;5.50;;;;;;;1.43;50.61;100260.42;126269;1098;104300;-79
2022/01/22 11:00:40;;;;;;;16.77;5.73;;;;;;;1.38;50.62;100245.38;126418;1099;104316;-80
2022/01/22 11:03:25;;;;;;;15.97;5.97;;;;;;;1.34;50.68;100246.86;126208;1098;102168;-79
2022/01/22 11:05:59;;;;;;;17.80;6.83;;;;;;;1.28;50.73;100249.03;126375;1099;104155;-80
2022/01/22 11:08:31;;;;;;;19.05;6.17;;;;;;;1.21;50.51;100247.69;126431;1099;104267;-79
2022/01/22 11:11:03;;;;;;;16.30;6.00;;;;;;;1.15;50.25;100241.20;126265;1099;104327;-79
2022/01/22 11:13:35;;;;;;;14.87;5.90;;;;;;;1.12;50.50;100228.07;126286;1099;104243;-79
2022/01/22 11:16:10;;;;;;;13.67;5.60;;;;;;;1.14;50.26;100229.06;126245;1097;104270;-79
2022/01/22 11:18:47;;;;;;;19.43;6.10;;;;;;;1.16;50.52;100219.75;126335;1099;104220;-79
2022/01/22 11:21:22;;;;;;;17.20;6.23;;;;;;;1.21;50.43;100228.70;126389;1099;104110;-80
2022/01/22 11:23:54;;;;;;;16.83;6.53;;;;;;;1.33;50.19;100233.83;126303;1099;105138;-79
2022/01/22 11:26:26;;;;;;;20.73;6.60;;;;;;;1.46;50.82;100230.37;126326;1099;104163;-80
2022/01/22 11:28:59;;;;;;;16.57;5.77;;;;;;;1.65;50.13;100228.22;126294;1099;104188;-80
2022/01/22 11:31:37;;;;;;;16.30;5.77;;;;;;;1.78;50.57;100230.84;126362;1099;104666;-80
2022/01/22 11:34:17;;;;;;;15.53;5.63;;;;;;;1.75;49.16;100235.81;126361;1099;104257;-80
2022/01/22 11:37:03;;;;;;;14.07;4.73;;;;;;;1.66;48.67;100223.97;126403;1099;104399;-80
2022/01/22 11:39:36;;;;;;;14.50;4.90;;;;;;;1.58;49.33;100229.51;126321;1099;104149;-80
2022/01/22 11:42:11;;;;;;;16.70;5.20;;;;;;;1.60;49.34;100240.84;126389;1099;104137;-80
2022/01/22 11:44:50;;;;;;;15.27;5.60;;;;;;;1.57;48.71;100229.41;126389;1099;104140;-79
2022/01/22 11:47:24;;;;;;;14.55;5.30;;;;;;;1.50;48.41;100229.80;126369;1099;104724;-79
2022/01/22 11:50:08;;;;;;;;;;;;;;;1.49;49.33;100221.13;126379;1099;104153;-79
2022/01/22 11:52:44;;;;;;;17.73;5.57;;;;;;;1.48;48.77;100223.61;126310;1098;104204;-80
2022/01/22 11:55:20;;;;;;;15.73;5.77;;;;;;;1.51;49.29;100224.73;126357;1099;104258;-79
2022/01/22 11:58:07;;;;;;;21.30;7.00;;;;;;;1.57;49.32;100219.06;126365;1099;104139;-79
2022/01/22 12:00:44;;;;;;;16.83;5.73;;;;;;;1.62;49.18;100217.67;126194;1098;104178;-79
2022/01/22 12:03:26;;;;;;;13.83;5.57;;;;;;;1.72;49.66;100219.20;126280;1098;104301;-79
2022/01/22 12:06:12;;;;;;;11.77;4.40;;;;;;;1.73;48.96;100219.30;126269;1099;104194;-79
2022/01/22 12:09:14;;;;;;;11.70;4.77;;;;;;;1.65;49.06;100222.16;126318;1099;104271;-79
2022/01/22 12:14:53;;;;;;;16.00;4.90;;;;;;;1.46;49.07;100217.45;126263;1099;104270;-81
2022/01/22 12:18:06;;;;;;;17.80;5.53;;;;;;;1.40;49.46;100229.18;126149;1099;104329;-80
2022/01/22 12:23:56;;;;;;;13.87;4.60;;;;;;;1.28;48.15;100230.02;125329;1099;104810;-80
2022/01/22 12:26:59;;;;;;;12.70;4.40;;;;;;;1.23;48.54;100229.70;125317;1099;104188;-79
2022/01/22 12:29:40;;;;;;;9.37;4.20;;;;;;;1.20;48.02;100247.58;125380;1099;104336;-80
2022/01/22 12:32:16;;;;;;;15.00;4.97;;;;;;;1.16;48.17;100225.80;126305;1099;104172;-80
2022/01/22 12:35:06;;;;;;;12.37;4.20;;;;;;;1.12;48.37;100228.95;125341;1102;104156;-80
2022/01/22 12:37:42;;;;;;;11.70;4.90;;;;;;;1.12;48.12;100228.07;125355;1102;104168;-79
2022/01/22 12:40:27;;;;;;;15.13;5.00;;;;;;;1.12;48.60;100223.79;125359;1102;104255;-79
2022/01/22 12:43:08;;;;;;;14.93;4.83;;;;;;;1.14;48.83;100226.48;125246;1099;104233;-80
2022/01/22 12:45:44;;;;;;;15.13;5.40;;;;;;;1.17;48.77;100221.52;125245;1099;118812;-80
2022/01/22 12:48:20;;;;;;;17.45;5.95;;;;;;;1.15;48.84;100226.59;125387;1099;104390;-79
2022/01/22 12:50:51;;;;;;;14.03;5.10;;;;;;;1.11;48.93;100232.36;125301;1099;104309;-79
2022/01/22 12:53:23;;;;;;;11.87;4.93;;;;;;;1.07;48.96;100235.51;125335;1099;104229;-79
2022/01/22 12:56:25;;;;;;;14.13;5.27;;;;;;;1.03;48.99;100241.27;125900;1099;104236;-79
2022/01/22 12:59:01;;;;;;;15.90;5.47;;;;;;;0.95;48.90;100263.99;126372;1099;104198;-79
2022/01/22 13:01:34;;;;;;;13.03;5.17;;;;;;;0.87;49.10;100258.29;126270;1099;104249;-79
2022/01/22 13:04:08;;;;;;;17.15;6.20;;;;;;;0.83;49.11;100263.13;126228;1099;104153;-80
2022/01/22 13:07:15;;;;;;;18.83;6.10;;;;;;;0.82;49.34;100263.91;126052;1099;104169;-80
2022/01/22 13:10:10;;;;;;;19.23;6.93;;;;;;;0.85;49.35;100270.17;126388;1099;104297;-80